Time;durP1;ratioP1;P1;durP2;ratioP2;P2;SDS_P1;SDS_P2;PMS_P1;PMS_P2;Temp;Humidity;BMP_temperature;BMP_pressure;BME280_temperature;BME280_humidity;BME280_pressure;Samples;Min_cycle;Max_cycle;Signal;HPM_P1;HPM_P2
2021/01/15 00:00:37;;;;;;;4.03;3.37;;;-2.10;99.90;;;;;;2096860;28;20190;-67
2021/01/15 00:01:38;;;;;;;5.22;3.80;;;-2.10;99.90;;;;;;2097563;28;20181;-67
2021/01/15 00:02:39;;;;;;;6.20;3.90;;;-2.10;99.90;;;;;;2097588;28;20178;-67
2021/01/15 00:03:40;;;;;;;6.20;4.03;;;-2.10;99.90;;;;;;2097611;28;20205;-67
2021/01/15 00:04:40;;;;;;;4.53;3.53;;;-2.10;99.90;;;;;;2097420;28;20547;-67
2021/01/15 00:05:41;;;;;;;6.10;4.07;;;-2.10;99.90;;;;;;2097984;28;20186;-67
2021/01/15 00:06:42;;;;;;;5.83;4.43;;;-2.00;99.90;;;;;;2097409;28;20446;-67
2021/01/15 00:07:42;;;;;;;6.57;4.43;;;-2.10;99.90;;;;;;2097325;28;20195;-67
2021/01/15 00:08:43;;;;;;;5.53;4.17;;;-2.10;99.90;;;;;;2097455;28;20208;-67
2021/01/15 00:09:44;;;;;;;5.93;4.03;;;-2.00;99.90;;;;;;2097341;28;20189;-67
2021/01/15 00:10:44;;;;;;;6.13;4.07;;;-2.00;99.90;;;;;;2097096;28;20244;-67
2021/01/15 00:11:45;;;;;;;5.80;4.27;;;-2.00;99.90;;;;;;2096590;28;20214;-67
2021/01/15 00:12:46;;;;;;;5.63;3.93;;;-2.00;99.90;;;;;;2097358;28;20621;-67
2021/01/15 00:13:46;;;;;;;6.47;4.37;;;-2.00;99.90;;;;;;2097562;28;20186;-68
2021/01/15 00:14:47;;;;;;;6.53;4.57;;;-1.90;99.90;;;;;;2097511;28;20179;-68
2021/01/15 00:15:48;;;;;;;5.17;3.87;;;-1.90;99.90;;;;;;2096890;28;20550;-67
2021/01/15 00:16:53;;;;;;;6.37;4.10;;;-1.90;99.90;;;;;;2096819;28;20262;-67
2021/01/15 00:17:54;;;;;;;5.90;3.90;;;-2.00;99.90;;;;;;2096969;28;20698;-67
2021/01/15 00:18:57;;;;;;;5.07;3.90;;;-2.00;99.90;;;;;;2096870;28;20261;-67
2021/01/15 00:19:57;;;;;;;5.25;3.92;;;-2.10;99.90;;;;;;2097073;28;20182;-67
2021/01/15 00:20:58;;;;;;;8.83;4.20;;;-2.20;99.90;;;;;;2096659;28;20222;-67
2021/01/15 00:21:59;;;;;;;4.73;3.57;;;-2.20;99.90;;;;;;2097679;28;20208;-67
2021/01/15 00:22:59;;;;;;;5.33;3.77;;;-2.20;99.90;;;;;;2098577;28;20649;-67
2021/01/15 00:24:05;;;;;;;5.00;3.87;;;-2.20;99.90;;;;;;2099152;28;20226;-67
2021/01/15 00:25:06;;;;;;;5.18;4.30;;;-2.20;99.90;;;;;;2098457;28;20181;-67
2021/01/15 00:26:15;;;;;;;5.40;4.00;;;-2.10;99.90;;;;;;2098443;28;20209;-67
2021/01/15 00:27:16;;;;;;;5.93;4.25;;;-2.20;99.90;;;;;;2098318;28;20210;-67
2021/01/15 00:28:16;;;;;;;6.27;4.37;;;-2.10;99.90;;;;;;2098368;28;20186;-67
2021/01/15 00:29:17;;;;;;;6.83;4.20;;;-2.10;99.90;;;;;;2098937;28;20175;-67
2021/01/15 00:30:18;;;;;;;6.57;4.40;;;-2.10;99.90;;;;;;2098415;28;20179;-67
2021/01/15 00:31:24;;;;;;;5.65;4.07;;;-2.10;99.90;;;;;;2098099;28;20658;-67
2021/01/15 00:32:25;;;;;;;5.90;4.60;;;-2.10;99.90;;;;;;2098283;28;20736;-67
2021/01/15 00:33:26;;;;;;;6.90;4.60;;;-2.10;99.90;;;;;;2098235;28;20174;-68
2021/01/15 00:34:26;;;;;;;6.27;4.63;;;-2.10;99.90;;;;;;2099048;28;20174;-67
2021/01/15 00:35:27;;;;;;;6.53;4.97;;;-2.10;99.90;;;;;;2098982;28;20170;-67
2021/01/15 00:36:28;;;;;;;6.27;4.33;;;-2.00;99.90;;;;;;2098969;28;20842;-68
2021/01/15 00:37:29;;;;;;;7.20;5.27;;;-2.00;99.90;;;;;;2098295;28;20265;-68
2021/01/15 00:38:29;;;;;;;5.60;3.97;;;-1.90;99.90;;;;;;2090146;28;20190;-67
2021/01/15 00:39:30;;;;;;;6.00;4.50;;;-1.90;99.90;;;;;;2098162;28;20200;-67
2021/01/15 00:40:31;;;;;;;6.23;4.50;;;-2.00;99.90;;;;;;2099086;28;20198;-67
2021/01/15 00:41:38;;;;;;;8.43;4.93;;;-1.90;99.90;;;;;;2098656;28;20175;-67
2021/01/15 00:42:39;;;;;;;7.80;5.18;;;-2.00;99.90;;;;;;2090008;28;20190;-67
2021/01/15 00:43:40;;;;;;;7.60;4.90;;;-2.00;99.90;;;;;;2090079;28;20670;-67
2021/01/15 00:44:45;;;;;;;6.80;4.80;;;-2.00;99.90;;;;;;2098915;28;20603;-67
2021/01/15 00:45:46;;;;;;;7.63;5.18;;;-1.90;99.90;;;;;;2098823;28;20598;-67
2021/01/15 00:46:53;;;;;;;6.43;4.47;;;-1.90;99.90;;;;;;2099090;28;20190;-67
2021/01/15 00:47:54;;;;;;;7.47;4.72;;;-1.90;99.90;;;;;;2098142;28;20305;-68
2021/01/15 00:48:54;;;;;;;6.10;4.17;;;-1.90;99.90;;;;;;2098330;28;20214;-67
2021/01/15 00:49:55;;;;;;;7.77;4.83;;;-1.90;99.90;;;;;;2098626;28;20183;-68
2021/01/15 00:50:56;;;;;;;7.57;5.03;;;-1.90;99.90;;;;;;2098771;28;20281;-67
2021/01/15 00:51:56;;;;;;;7.93;4.90;;;-1.90;99.90;;;;;;2098768;28;20246;-67
2021/01/15 00:52:57;;;;;;;6.93;5.03;;;-1.80;99.90;;;;;;2098870;28;20178;-67
2021/01/15 00:53:58;;;;;;;5.97;5.30;;;-1.80;99.90;;;;;;2098901;28;20257;-67
2021/01/15 00:54:59;;;;;;;5.70;4.18;;;-1.90;99.90;;;;;;2098272;28;20214;-67
2021/01/15 00:55:59;;;;;;;6.37;4.67;;;-1.90;99.90;;;;;;2098283;28;20588;-67
2021/01/15 00:57:02;;;;;;;8.70;5.27;;;-1.90;99.90;;;;;;2098097;28;20186;-67
2021/01/15 00:58:03;;;;;;;6.43;4.55;;;-1.80;99.90;;;;;;2081677;28;20206;-69
2021/01/15 00:59:04;;;;;;;6.20;4.50;;;-1.80;99.90;;;;;;2081685;28;20228;-67
2021/01/15 01:00:09;;;;;;;7.50;5.43;;;-1.80;99.90;;;;;;2089747;28;20190;-67
2021/01/15 01:01:13;;;;;;;8.90;5.30;;;-1.80;99.90;;;;;;2106175;28;20174;-67
2021/01/15 01:02:14;;;;;;;5.97;4.07;;;-1.90;99.90;;;;;;2098071;28;20570;-67
2021/01/15 01:03:15;;;;;;;6.13;4.50;;;-1.80;99.90;;;;;;2096003;28;20186;-67
2021/01/15 01:04:16;;;;;;;5.60;4.53;;;-1.80;99.90;;;;;;2097364;28;20187;-67
2021/01/15 01:05:20;;;;;;;6.63;4.65;;;-1.80;99.90;;;;;;2098174;28;20645;-68
2021/01/15 01:06:22;;;;;;;7.03;4.72;;;-1.90;99.90;;;;;;2098094;28;20224;-67
2021/01/15 01:07:23;;;;;;;6.95;4.43;;;-1.90;99.90;;;;;;2098073;28;20193;-67
2021/01/15 01:08:24;;;;;;;7.47;4.90;;;-1.90;99.90;;;;;;2098795;28;20204;-67
2021/01/15 01:09:24;;;;;;;6.23;4.90;;;-2.00;99.90;;;;;;2098854;28;20229;-68
2021/01/15 01:10:26;;;;;;;6.23;4.50;;;-1.90;99.90;;;;;;2098591;28;20177;-67
2021/01/15 01:11:26;;;;;;;7.75;4.72;;;-1.80;99.90;;;;;;2098399;28;20267;-67
2021/01/15 01:12:27;;;;;;;6.97;4.53;;;-1.80;99.90;;;;;;2098905;28;20218;-67
2021/01/15 01:13:28;;;;;;;5.60;4.20;;;-1.80;99.90;;;;;;2098483;28;20641;-67
2021/01/15 01:14:28;;;;;;;7.13;4.27;;;-1.80;99.90;;;;;;2098655;28;20181;-67
2021/01/15 01:15:29;;;;;;;7.30;4.60;;;-1.80;99.90;;;;;;2098619;28;20170;-68
2021/01/15 01:16:30;;;;;;;5.47;4.27;;;-1.90;99.90;;;;;;2098873;28;20231;-67
2021/01/15 01:17:31;;;;;;;6.13;4.45;;;-1.90;99.90;;;;;;2098526;28;20191;-67
2021/01/15 01:18:35;;;;;;;5.73;4.37;;;-1.90;99.90;;;;;;2098732;28;20182;-68
2021/01/15 01:19:35;;;;;;;8.07;5.18;;;-1.90;99.90;;;;;;2098648;28;20558;-67
2021/01/15 01:20:36;;;;;;;9.03;5.30;;;-1.80;99.90;;;;;;2098716;28;20182;-67
2021/01/15 01:21:37;;;;;;;6.90;4.93;;;-1.80;99.90;;;;;;2105910;28;20177;-67
2021/01/15 01:22:38;;;;;;;6.50;4.60;;;-1.80;99.90;;;;;;2098092;28;20182;-67
2021/01/15 01:23:39;;;;;;;7.45;4.72;;;-1.80;99.90;;;;;;2089764;28;20195;-67
2021/01/15 01:24:40;;;;;;;6.40;4.80;;;-1.80;99.90;;;;;;2089824;28;20189;-67
2021/01/15 01:25:41;;;;;;;4.90;4.03;;;-1.80;99.90;;;;;;2097915;28;20215;-67
2021/01/15 01:26:41;;;;;;;6.70;4.13;;;-1.80;99.90;;;;;;2098409;28;20208;-67
2021/01/15 01:27:44;;;;;;;6.93;4.50;;;-1.90;99.90;;;;;;2098366;28;20226;-67
2021/01/15 01:28:46;;;;;;;5.72;4.50;;;-1.90;99.90;;;;;;2097967;28;20186;-67
2021/01/15 01:29:46;;;;;;;5.95;4.07;;;-1.90;99.90;;;;;;2097911;28;20181;-67
2021/01/15 01:30:47;;;;;;;6.60;4.33;;;-1.90;99.90;;;;;;2098392;28;20538;-67
2021/01/15 01:31:48;;;;;;;4.67;3.40;;;-1.90;99.90;;;;;;2098262;28;20186;-67
2021/01/15 01:32:48;;;;;;;6.23;3.50;;;-1.80;99.90;;;;;;2098492;28;20172;-67
2021/01/15 01:33:49;;;;;;;4.43;3.60;;;-1.90;99.90;;;;;;2097972;28;20273;-67
2021/01/15 01:34:50;;;;;;;5.80;3.53;;;-1.90;99.90;;;;;;2097927;28;20332;-67
2021/01/15 01:35:51;;;;;;;7.07;3.97;;;-1.90;99.90;;;;;;2098564;28;20243;-67
2021/01/15 01:36:52;;;;;;;5.13;4.03;;;-1.90;99.90;;;;;;2098365;28;20174;-67
2021/01/15 01:37:52;;;;;;;5.70;4.37;;;-1.90;99.90;;;;;;2098467;28;20201;-68
2021/01/15 01:38:53;;;;;;;5.50;3.83;;;-1.90;99.90;;;;;;2098461;28;20175;-67
2021/01/15 01:39:54;;;;;;;5.07;3.87;;;-1.90;99.90;;;;;;2098457;28;20189;-68
2021/01/15 01:40:54;;;;;;;6.53;4.30;;;-1.90;99.90;;;;;;2098223;28;20719;-67
2021/01/15 01:41:55;;;;;;;6.03;4.33;;;-2.00;99.90;;;;;;2098379;28;20185;-67
2021/01/15 01:42:56;;;;;;;5.13;3.97;;;-2.00;99.90;;;;;;2098507;28;20178;-67
2021/01/15 01:43:56;;;;;;;6.10;4.10;;;-2.00;99.90;;;;;;2098418;28;20183;-67
2021/01/15 01:44:57;;;;;;;6.13;4.10;;;-2.00;99.90;;;;;;2098687;28;20248;-68
2021/01/15 01:46:16;;;;;;;5.10;4.37;;;-1.90;99.90;;;;;;2097827;28;20181;-67
2021/01/15 01:47:17;;;;;;;5.05;3.70;;;-1.90;99.90;;;;;;2099925;28;20165;-68
2021/01/15 01:48:19;;;;;;;6.63;4.10;;;-2.00;99.90;;;;;;2089474;28;20203;-67
2021/01/15 01:49:20;;;;;;;4.53;3.88;;;-2.00;99.90;;;;;;2089807;28;20175;-67
2021/01/15 01:50:22;;;;;;;5.60;4.32;;;-2.00;99.90;;;;;;2097674;28;20626;-68
2021/01/15 01:51:23;;;;;;;6.18;4.03;;;-2.00;99.90;;;;;;2089408;28;20192;-67
2021/01/15 01:52:24;;;;;;;7.32;4.18;;;-2.00;99.90;;;;;;2089601;28;20265;-67
2021/01/15 01:53:32;;;;;;;5.47;3.83;;;-2.00;99.90;;;;;;2089495;28;20216;-68
2021/01/15 01:54:35;;;;;;;5.88;4.68;;;-2.00;99.90;;;;;;2098664;28;20162;-67
2021/01/15 01:55:37;;;;;;;6.28;4.78;;;-2.00;99.90;;;;;;2097886;28;20174;-67
2021/01/15 01:56:40;;;;;;;7.53;4.97;;;-1.90;99.90;;;;;;2097607;28;20207;-67
2021/01/15 01:57:41;;;;;;;6.78;4.63;;;-1.80;99.90;;;;;;2098155;28;20206;-67
2021/01/15 01:58:42;;;;;;;6.43;4.72;;;-1.80;99.90;;;;;;2097705;28;20189;-67
2021/01/15 01:59:43;;;;;;;7.43;4.80;;;-1.80;99.90;;;;;;2097705;28;20181;-68
2021/01/15 02:00:46;;;;;;;7.10;4.70;;;-1.90;99.90;;;;;;2098151;28;20260;-67
2021/01/15 02:01:47;;;;;;;7.40;4.85;;;-1.90;99.90;;;;;;2097537;28;20181;-67
2021/01/15 02:02:48;;;;;;;6.57;5.07;;;-1.90;99.90;;;;;;2080977;28;20572;-67
2021/01/15 02:04:01;;;;;;;8.90;5.30;;;-2.00;99.90;;;;;;2089259;28;20179;-68
2021/01/15 02:05:04;;;;;;;6.72;4.65;;;-1.90;99.90;;;;;;2097544;28;20171;-67
2021/01/15 02:06:05;;;;;;;5.78;4.10;;;-2.00;99.90;;;;;;2097714;28;20660;-68
2021/01/15 02:07:06;;;;;;;6.27;4.67;;;-2.10;99.90;;;;;;2098197;28;20168;-67
2021/01/15 02:08:07;;;;;;;6.03;4.50;;;-2.10;99.90;;;;;;2098234;28;20200;-67
2021/01/15 02:09:10;;;;;;;10.03;4.93;;;-2.00;99.90;;;;;;2098090;28;20174;-66
2021/01/15 02:10:33;;;;;;;6.72;4.80;;;-2.00;99.90;;;;;;2097564;28;20233;-67
2021/01/15 02:11:33;;;;;;;5.75;4.70;;;-2.00;99.90;;;;;;2092090;28;20256;-68
2021/01/15 02:12:53;;;;;;;6.83;5.47;;;-2.00;99.90;;;;;;2097724;28;20205;-67
2021/01/15 02:14:18;;;;;;;6.18;4.53;;;-2.00;99.90;;;;;;2097177;28;20210;-67
2021/01/15 02:15:27;;;;;;;6.90;5.22;;;-2.00;99.90;;;;;;2097725;28;20155;-67
2021/01/15 02:16:30;;;;;;;5.93;4.35;;;-2.00;99.90;;;;;;2097532;28;20174;-67
2021/01/15 02:17:36;;;;;;;7.30;5.10;;;-2.00;99.90;;;;;;2097535;28;20202;-68
2021/01/15 02:18:45;;;;;;;8.23;5.22;;;-2.00;99.90;;;;;;2097642;28;20167;-67
2021/01/15 02:20:03;;;;;;;8.55;5.28;;;-2.00;99.90;;;;;;2097424;28;20182;-66
2021/01/15 02:21:48;;;;;;;8.38;5.03;;;-2.00;99.90;;;;;;2097508;28;20176;-67
2021/01/15 02:23:05;;;;;;;7.25;4.55;;;-2.00;99.90;;;;;;2097593;28;20261;-67
2021/01/15 02:24:11;;;;;;;5.72;4.35;;;-2.00;99.90;;;;;;2091427;28;20192;-67
2021/01/15 02:25:45;;;;;;;6.72;4.07;;;-2.00;99.90;;;;;;2097435;28;20202;-66
2021/01/15 02:27:38;;;;;;;6.55;4.65;;;-2.10;99.90;;;;;;2098287;28;20177;-68
2021/01/15 02:29:17;;;;;;;6.25;4.07;;;-2.10;99.90;;;;;;2098266;28;20173;-67
2021/01/15 02:30:39;;;;;;;7.13;4.35;;;-2.10;99.90;;;;;;2097414;28;20239;-67
2021/01/15 02:31:46;;;;;;;5.35;4.13;;;-2.10;99.90;;;;;;2092052;28;20217;-67
2021/01/15 02:33:21;;;;;;;6.28;4.47;;;-2.10;99.90;;;;;;2097512;28;20692;-66
2021/01/15 02:35:06;;;;;;;6.65;4.82;;;-2.10;99.90;;;;;;2089116;28;20178;-67
2021/01/15 02:36:21;;;;;;;7.72;5.13;;;-2.10;99.90;;;;;;2095497;28;20640;-67
2021/01/15 02:38:02;;;;;;;7.65;4.95;;;-2.10;99.90;;;;;;2097493;28;20172;-67
2021/01/15 02:39:25;;;;;;;6.68;4.47;;;-2.10;99.90;;;;;;2077777;28;20277;-67
2021/01/15 02:40:45;;;;;;;6.25;4.35;;;-2.10;99.90;;;;;;2097647;28;20200;-67
2021/01/15 02:41:46;;;;;;;6.38;4.40;;;-2.10;99.90;;;;;;2091930;28;20261;-67
2021/01/15 02:42:51;;;;;;;6.77;4.70;;;-2.10;99.90;;;;;;2097519;28;20181;-67
2021/01/15 02:44:12;;;;;;;8.38;4.95;;;-2.10;99.90;;;;;;2097529;28;20218;-67
2021/01/15 02:45:13;;;;;;;5.80;4.43;;;-2.10;99.90;;;;;;2091852;28;20174;-68
2021/01/15 02:46:17;;;;;;;7.28;5.20;;;-2.10;99.90;;;;;;2097305;28;20188;-67
2021/01/15 02:47:24;;;;;;;6.68;4.85;;;-2.20;99.90;;;;;;2097158;28;20539;-67
2021/01/15 02:48:29;;;;;;;8.10;5.13;;;-2.20;99.90;;;;;;2089987;28;20225;-67
2021/01/15 02:49:32;;;;;;;6.03;4.85;;;-2.20;99.90;;;;;;2089790;28;20769;-68
2021/01/15 02:50:33;;;;;;;7.70;5.20;;;-2.20;99.90;;;;;;2089109;28;20187;-68
2021/01/15 02:51:33;;;;;;;7.00;4.77;;;-2.10;99.90;;;;;;2097131;28;20187;-68
2021/01/15 02:52:36;;;;;;;6.70;5.07;;;-2.10;99.90;;;;;;2097250;28;20209;-68
2021/01/15 02:53:38;;;;;;;6.38;4.72;;;-2.10;99.90;;;;;;2097059;28;20787;-67
2021/01/15 02:54:39;;;;;;;6.55;4.63;;;-2.20;99.90;;;;;;2097252;28;20229;-67
2021/01/15 02:55:39;;;;;;;6.17;4.70;;;-2.10;99.90;;;;;;2097345;28;20689;-68
2021/01/15 02:56:40;;;;;;;7.23;5.13;;;-2.10;99.90;;;;;;2097746;28;20239;-67
2021/01/15 02:57:41;;;;;;;8.85;5.43;;;-2.10;99.90;;;;;;2097174;28;20203;-68
2021/01/15 02:58:42;;;;;;;7.95;5.10;;;-2.00;99.90;;;;;;2097227;28;20265;-67
2021/01/15 02:59:43;;;;;;;7.10;5.17;;;-2.00;99.90;;;;;;2097085;28;20521;-67
2021/01/15 03:00:44;;;;;;;7.97;5.60;;;-1.90;99.90;;;;;;2097128;28;20281;-67
2021/01/15 03:02:00;;;;;;;7.25;5.45;;;-1.90;99.90;;;;;;2105393;28;20181;-67
2021/01/15 03:03:33;;;;;;;7.45;5.20;;;-1.90;99.90;;;;;;2097108;28;20260;-67
2021/01/15 03:04:52;;;;;;;6.70;4.72;;;-1.90;99.90;;;;;;2093400;28;20252;-68
2021/01/15 03:06:11;;;;;;;6.10;4.72;;;-2.00;99.90;;;;;;2097388;28;20225;-67
2021/01/15 03:07:15;;;;;;;6.43;4.72;;;-2.00;99.90;;;;;;2094570;28;20172;-67
2021/01/15 03:08:20;;;;;;;7.38;5.10;;;-2.00;99.90;;;;;;2097049;28;20197;-68
2021/01/15 03:09:22;;;;;;;8.95;5.75;;;-2.00;99.90;;;;;;2089418;28;20183;-68
2021/01/15 03:10:25;;;;;;;9.05;5.78;;;-2.00;99.90;;;;;;2089126;28;20187;-67
2021/01/15 03:11:27;;;;;;;8.40;5.72;;;-2.00;99.90;;;;;;2088844;28;20213;-67
2021/01/15 03:12:28;;;;;;;7.30;5.30;;;-2.00;99.90;;;;;;2097176;28;20225;-67
2021/01/15 03:13:31;;;;;;;7.22;4.90;;;-2.00;99.90;;;;;;2096952;28;20634;-67
2021/01/15 03:14:35;;;;;;;8.32;5.55;;;-1.90;99.90;;;;;;2089096;28;20669;-68
2021/01/15 03:15:39;;;;;;;8.40;6.25;;;-1.90;99.90;;;;;;2089089;28;20583;-67
2021/01/15 03:16:42;;;;;;;7.00;5.40;;;-1.90;99.90;;;;;;2089528;28;20268;-68
2021/01/15 03:17:47;;;;;;;9.05;6.15;;;-1.90;99.90;;;;;;2089034;28;20198;-68
2021/01/15 03:18:50;;;;;;;8.40;6.07;;;-1.90;99.90;;;;;;2089303;28;20240;-68
2021/01/15 03:19:52;;;;;;;9.52;5.68;;;-1.90;99.90;;;;;;2097084;28;20798;-67
2021/01/15 03:20:53;;;;;;;9.38;6.32;;;-2.00;99.90;;;;;;2096878;28;20189;-67
2021/01/15 03:21:54;;;;;;;7.82;5.40;;;-2.00;99.90;;;;;;2097085;28;20327;-67
2021/01/15 03:22:55;;;;;;;10.30;6.03;;;-2.00;99.90;;;;;;2097787;28;20195;-67
2021/01/15 03:24:02;;;;;;;9.10;6.13;;;-2.00;99.90;;;;;;2096967;28;20184;-67
2021/01/15 03:25:03;;;;;;;9.25;5.80;;;-1.90;99.90;;;;;;2097509;28;20165;-67
2021/01/15 03:26:05;;;;;;;8.95;6.20;;;-2.00;99.90;;;;;;2097842;28;20193;-68
2021/01/15 03:27:06;;;;;;;8.18;5.47;;;-2.00;99.90;;;;;;2097682;28;20183;-67
2021/01/15 03:28:06;;;;;;;10.00;6.03;;;-2.00;99.90;;;;;;2097140;28;20197;-68
2021/01/15 03:29:13;;;;;;;9.03;6.40;;;-1.90;99.90;;;;;;2097022;28;20430;-67
2021/01/15 03:30:19;;;;;;;8.45;5.30;;;-1.90;99.90;;;;;;2097717;28;20534;-68
2021/01/15 03:31:20;;;;;;;9.30;5.88;;;-2.00;99.90;;;;;;2097619;28;20188;-67
2021/01/15 03:32:20;;;;;;;7.77;5.93;;;-2.00;99.90;;;;;;2097358;28;20210;-67
2021/01/15 03:33:21;;;;;;;8.57;5.33;;;-2.00;99.90;;;;;;2097700;28;20266;-68
2021/01/15 03:34:22;;;;;;;7.90;5.90;;;-2.00;99.90;;;;;;2097649;28;20168;-68
2021/01/15 03:35:24;;;;;;;8.47;5.87;;;-1.90;99.90;;;;;;2097775;28;20250;-69
2021/01/15 03:36:25;;;;;;;8.02;5.53;;;-1.90;99.90;;;;;;2097294;28;20170;-68
2021/01/15 03:37:25;;;;;;;9.93;5.90;;;-1.90;99.90;;;;;;2097356;28;20247;-71
2021/01/15 03:38:26;;;;;;;8.33;6.27;;;-2.00;99.90;;;;;;2097922;28;20177;-68
2021/01/15 03:39:27;;;;;;;8.43;5.90;;;-1.90;99.90;;;;;;2098038;28;20182;-68
2021/01/15 03:40:37;;;;;;;7.67;5.80;;;-2.00;99.90;;;;;;2097690;28;20228;-67
2021/01/15 03:41:37;;;;;;;8.90;5.88;;;-2.00;99.90;;;;;;2093286;28;20239;-69
2021/01/15 03:42:38;;;;;;;9.17;6.67;;;-2.00;99.90;;;;;;2091871;28;20187;-68
2021/01/15 03:43:39;;;;;;;9.90;6.53;;;-2.00;99.90;;;;;;2095325;28;20193;-67
2021/01/15 03:44:39;;;;;;;9.73;6.37;;;-2.00;99.90;;;;;;2089999;28;20692;-68
2021/01/15 03:45:41;;;;;;;9.93;6.57;;;-2.00;99.90;;;;;;2089585;28;20213;-68
2021/01/15 03:46:42;;;;;;;9.40;6.43;;;-1.90;99.90;;;;;;2088909;28;20182;-69
2021/01/15 03:47:43;;;;;;;9.97;6.83;;;-2.00;99.90;;;;;;2088449;28;20301;-68
2021/01/15 03:48:45;;;;;;;11.33;7.10;;;-2.10;99.90;;;;;;2089471;28;20552;-68
2021/01/15 03:49:46;;;;;;;11.25;7.35;;;-2.10;99.90;;;;;;2088745;28;20188;-68
2021/01/15 03:50:51;;;;;;;9.63;6.57;;;-2.10;99.90;;;;;;2088709;28;20186;-67
2021/01/15 03:51:52;;;;;;;8.85;6.63;;;-2.10;99.90;;;;;;2088630;28;20181;-67
2021/01/15 03:52:52;;;;;;;9.50;7.10;;;-2.00;99.90;;;;;;2088777;28;20183;-67
2021/01/15 03:53:53;;;;;;;12.60;7.70;;;-2.00;99.90;;;;;;2089237;28;20716;-68
2021/01/15 03:54:54;;;;;;;10.30;7.03;;;-2.00;99.90;;;;;;2089409;28;20212;-67
2021/01/15 03:55:54;;;;;;;11.80;7.67;;;-2.00;99.90;;;;;;2089325;28;20204;-66
2021/01/15 03:56:55;;;;;;;9.67;7.07;;;-2.00;99.90;;;;;;2089369;28;20203;-67
2021/01/15 03:57:56;;;;;;;10.57;7.57;;;-2.00;99.90;;;;;;2090322;28;20209;-67
2021/01/15 03:58:56;;;;;;;8.60;6.73;;;-2.00;99.90;;;;;;2091066;28;20169;-68
2021/01/15 03:59:57;;;;;;;9.90;6.90;;;-2.10;99.90;;;;;;2091144;28;20185;-66
2021/01/15 04:00:58;;;;;;;10.43;7.27;;;-2.20;99.90;;;;;;2098407;28;20182;-68
2021/01/15 04:01:59;;;;;;;10.03;7.17;;;-2.20;99.90;;;;;;2098626;28;20224;-67
2021/01/15 04:02:59;;;;;;;10.13;6.73;;;-2.20;99.90;;;;;;2091082;28;20209;-68
2021/01/15 04:04:00;;;;;;;10.30;7.40;;;-2.20;99.90;;;;;;2091046;28;20182;-68
2021/01/15 04:05:01;;;;;;;12.30;7.80;;;-2.30;99.90;;;;;;2090734;28;20259;-67
2021/01/15 04:06:01;;;;;;;9.60;7.20;;;-2.30;99.90;;;;;;2091061;28;20174;-69
2021/01/15 04:07:02;;;;;;;9.97;7.23;;;-2.30;99.90;;;;;;2090760;28;20578;-67
2021/01/15 04:08:03;;;;;;;11.13;7.00;;;-2.30;99.90;;;;;;2090923;28;20673;-68
2021/01/15 04:09:04;;;;;;;11.90;8.02;;;-2.30;99.90;;;;;;2091042;28;20665;-67
2021/01/15 04:10:10;;;;;;;12.50;7.82;;;-2.30;99.90;;;;;;2091052;28;20530;-67
2021/01/15 04:11:11;;;;;;;12.65;7.57;;;-2.20;99.90;;;;;;2090809;28;20268;-68
2021/01/15 04:12:13;;;;;;;13.17;8.00;;;-2.20;99.90;;;;;;2090940;28;20286;-68
2021/01/15 04:13:14;;;;;;;12.80;8.35;;;-2.10;99.90;;;;;;2090755;28;20179;-68
2021/01/15 04:14:14;;;;;;;11.10;8.33;;;-2.10;99.90;;;;;;2091041;28;20809;-67
2021/01/15 04:15:17;;;;;;;13.23;8.17;;;-2.10;99.90;;;;;;2090842;28;20648;-68
2021/01/15 04:16:17;;;;;;;11.68;7.72;;;-2.20;99.90;;;;;;2090298;28;20176;-68
2021/01/15 04:17:18;;;;;;;10.63;7.37;;;-2.20;99.90;;;;;;2090249;28;20554;-68
2021/01/15 04:18:19;;;;;;;12.73;8.20;;;-2.20;99.90;;;;;;2090865;28;20175;-68
2021/01/15 04:19:19;;;;;;;9.50;6.93;;;-2.40;99.90;;;;;;2098392;28;20538;-68
2021/01/15 04:20:20;;;;;;;9.57;6.93;;;-2.30;99.90;;;;;;2098706;28;20263;-68
2021/01/15 04:21:21;;;;;;;8.37;6.57;;;-2.30;99.90;;;;;;2090721;28;20256;-67
2021/01/15 04:22:21;;;;;;;11.53;7.40;;;-2.30;99.90;;;;;;2090907;28;20178;-68
2021/01/15 04:23:22;;;;;;;9.83;7.10;;;-2.40;99.90;;;;;;2090094;28;20179;-68
2021/01/15 04:24:24;;;;;;;11.23;7.63;;;-2.30;99.90;;;;;;2090284;28;20179;-67
2021/01/15 04:25:24;;;;;;;12.52;7.97;;;-2.30;99.90;;;;;;2098260;28;20182;-67
2021/01/15 04:26:25;;;;;;;11.60;7.90;;;-2.30;99.90;;;;;;2090945;28;20649;-68
2021/01/15 04:27:34;;;;;;;12.20;8.00;;;-2.30;99.90;;;;;;2090753;28;20228;-67
2021/01/15 04:28:36;;;;;;;11.80;7.50;;;-2.30;99.90;;;;;;2090206;28;20177;-68
2021/01/15 04:29:36;;;;;;;10.60;7.28;;;-2.30;99.90;;;;;;2090230;28;20174;-69
2021/01/15 04:30:37;;;;;;;9.13;6.33;;;-2.30;99.90;;;;;;2098547;28;20182;-67
2021/01/15 04:31:38;;;;;;;8.63;6.67;;;-2.40;99.90;;;;;;2098329;28;20183;-68
2021/01/15 04:32:49;;;;;;;10.03;6.90;;;-2.40;99.90;;;;;;2090959;28;20311;-68
2021/01/15 04:33:49;;;;;;;10.38;6.95;;;-2.30;99.90;;;;;;2090896;28;20183;-68
2021/01/15 04:34:50;;;;;;;9.87;7.07;;;-2.40;99.90;;;;;;2090900;28;20190;-68
2021/01/15 04:35:51;;;;;;;11.00;6.80;;;-2.40;99.90;;;;;;2090700;28;20595;-68
2021/01/15 04:36:51;;;;;;;10.57;7.27;;;-2.50;99.90;;;;;;2090728;28;20186;-68
2021/01/15 04:37:52;;;;;;;10.37;7.20;;;-2.40;99.90;;;;;;2090842;28;20550;-68
2021/01/15 04:38:53;;;;;;;10.63;7.50;;;-2.40;99.90;;;;;;2090945;28;20181;-67
2021/01/15 04:39:54;;;;;;;10.90;7.37;;;-2.30;99.90;;;;;;2090769;28;20684;-68
2021/01/15 04:40:57;;;;;;;11.03;7.73;;;-2.40;99.90;;;;;;2090564;28;20177;-68
2021/01/15 04:41:59;;;;;;;11.52;7.97;;;-2.40;99.90;;;;;;2090825;28;20192;-68
2021/01/15 04:43:01;;;;;;;10.35;7.75;;;-2.30;99.90;;;;;;2090176;28;20187;-68
2021/01/15 04:44:04;;;;;;;10.05;7.15;;;-2.40;99.90;;;;;;2082014;28;20246;-67
2021/01/15 04:45:06;;;;;;;9.73;7.13;;;-2.30;99.90;;;;;;2089957;28;20181;-68
2021/01/15 04:46:06;;;;;;;11.20;7.53;;;-2.40;99.90;;;;;;2081867;28;20728;-68
2021/01/15 04:47:09;;;;;;;12.60;8.00;;;-2.40;99.90;;;;;;2081928;28;20182;-68
2021/01/15 04:48:16;;;;;;;13.73;8.25;;;-2.30;99.90;;;;;;2089819;28;20792;-68
2021/01/15 04:49:22;;;;;;;11.30;7.45;;;-2.30;99.90;;;;;;2082859;28;20179;-67
2021/01/15 04:50:24;;;;;;;11.95;7.57;;;-2.30;99.90;;;;;;2089970;28;20664;-68
2021/01/15 04:51:27;;;;;;;11.95;7.82;;;-2.40;99.90;;;;;;2090419;28;20722;-68
2021/01/15 04:52:44;;;;;;;10.73;7.05;;;-2.40;99.90;;;;;;2090453;28;20201;-68
2021/01/15 04:54:01;;;;;;;10.82;7.20;;;-2.30;99.90;;;;;;2090744;28;20179;-68
2021/01/15 04:55:02;;;;;;;11.75;7.68;;;-2.30;99.90;;;;;;2089997;28;20196;-67
2021/01/15 04:56:05;;;;;;;11.13;7.80;;;-2.30;99.90;;;;;;2081699;28;20245;-68
2021/01/15 04:57:11;;;;;;;10.30;7.13;;;-2.30;99.90;;;;;;2082010;28;20182;-68
2021/01/15 04:58:13;;;;;;;11.35;7.55;;;-2.30;99.90;;;;;;2082443;28;20193;-68
2021/01/15 04:59:14;;;;;;;10.75;7.50;;;-2.40;99.90;;;;;;2081776;28;20177;-67
2021/01/15 05:00:18;;;;;;;14.65;11.02;;;-2.40;99.90;;;;;;2090003;28;20181;-67
2021/01/15 05:01:20;;;;;;;14.52;11.15;;;-2.40;99.90;;;;;;2089624;28;20168;-70
2021/01/15 05:02:20;;;;;;;14.10;10.55;;;-2.40;99.90;;;;;;2081918;28;20191;-67
2021/01/15 05:03:24;;;;;;;12.67;8.47;;;-2.40;99.90;;;;;;2090001;28;20172;-68
2021/01/15 05:04:25;;;;;;;10.32;7.60;;;-2.30;99.90;;;;;;2090552;28;20177;-67
2021/01/15 05:05:27;;;;;;;13.07;8.30;;;-2.40;99.90;;;;;;2095682;28;20228;-67
2021/01/15 05:06:42;;;;;;;11.82;7.75;;;-2.40;99.90;;;;;;2098094;28;20180;-67
2021/01/15 05:08:06;;;;;;;11.35;6.88;;;-2.30;99.90;;;;;;2098459;28;20799;-67
2021/01/15 05:09:16;;;;;;;9.38;6.22;;;-2.30;99.90;;;;;;2098754;28;20172;-67
2021/01/15 05:10:24;;;;;;;10.43;8.00;;;-2.40;99.90;;;;;;2098304;28;20645;-67
2021/01/15 05:11:26;;;;;;;12.60;8.13;;;-2.30;99.90;;;;;;2097933;28;20185;-68
2021/01/15 05:12:30;;;;;;;12.23;7.53;;;-2.40;99.90;;;;;;2089648;28;20717;-70
2021/01/15 05:13:37;;;;;;;13.82;8.02;;;-2.30;99.90;;;;;;2098068;28;20255;-68
2021/01/15 05:14:38;;;;;;;10.38;6.78;;;-2.30;99.90;;;;;;2098761;28;20524;-67
2021/01/15 05:15:43;;;;;;;10.43;7.20;;;-2.30;99.90;;;;;;2098799;28;20185;-68
2021/01/15 05:16:48;;;;;;;11.20;7.05;;;-2.40;99.90;;;;;;2098266;28;20176;-68
2021/01/15 05:17:49;;;;;;;11.15;7.95;;;-2.40;99.90;;;;;;2090118;28;20277;-68
2021/01/15 05:18:53;;;;;;;10.48;7.38;;;-2.40;99.90;;;;;;2098122;28;20541;-68
2021/01/15 05:19:55;;;;;;;13.15;8.80;;;-2.40;99.90;;;;;;2089878;28;20182;-67
2021/01/15 05:20:56;;;;;;;12.65;7.07;;;-2.40;99.90;;;;;;2082125;28;20895;-67
2021/01/15 05:21:57;;;;;;;11.50;8.40;;;-2.30;99.90;;;;;;2098118;28;20177;-68
2021/01/15 05:23:04;;;;;;;10.55;7.50;;;-2.30;99.90;;;;;;2098863;28;20216;-67
2021/01/15 05:24:07;;;;;;;10.80;7.68;;;-2.40;99.90;;;;;;2098237;28;20686;-67
2021/01/15 05:25:09;;;;;;;10.85;7.10;;;-2.40;99.90;;;;;;2098134;28;20176;-70
2021/01/15 05:26:09;;;;;;;8.95;7.03;;;-2.50;99.90;;;;;;2097906;28;20193;-68
2021/01/15 05:28:31;;;;;;;10.13;7.00;;;-2.50;99.90;;;;;;2098461;28;20169;-68
2021/01/15 05:29:32;;;;;;;13.20;8.07;;;-2.50;99.90;;;;;;2097951;28;20639;-68
2021/01/15 05:30:34;;;;;;;11.57;7.30;;;-2.40;99.90;;;;;;2098115;28;20195;-67
2021/01/15 05:31:51;;;;;;;15.07;9.77;;;-2.50;99.90;;;;;;2106031;28;20756;-68
2021/01/15 05:32:59;;;;;;;12.60;8.38;;;-2.50;99.90;;;;;;2097917;28;20198;-67